Time;durP1;ratioP1;P1;durP2;ratioP2;P2;SDS_P1;SDS_P2;PMS_P1;PMS_P2;Temp;Humidity;BMP_temperature;BMP_pressure;BME280_temperature;BME280_humidity;BME280_pressure;Samples;Min_cycle;Max_cycle;Signal;HPM_P1;HPM_P2
2021/12/08 00:00:25;;;;;;;3.83;1.90;;;19.30;99.90;;;;;;4205202;28;20268;-78
2021/12/08 00:02:27;;;;;;;2.28;1.52;;;19.30;99.90;;;;;;4202494;28;20276;-77
2021/12/08 00:04:30;;;;;;;4.75;1.90;;;19.30;99.90;;;;;;4203319;28;20230;-77
2021/12/08 00:06:32;;;;;;;2.40;1.63;;;19.30;99.90;;;;;;4212525;28;20272;-77
2021/12/08 00:08:36;;;;;;;2.45;1.60;;;19.30;99.90;;;;;;4212776;28;20218;-78
2021/12/08 00:13:01;;;;;;;3.35;1.83;;;19.30;99.90;;;;;;4212094;28;20222;-77
2021/12/08 00:13:14;;;;;;;3.05;1.83;;;19.30;99.90;;;;;;4211658;28;20295;-77
2021/12/08 00:15:18;;;;;;;2.85;1.90;;;19.30;99.90;;;;;;4211178;28;20256;-77
2021/12/08 00:17:20;;;;;;;3.80;1.77;;;19.30;99.90;;;;;;4207555;28;20287;-77
2021/12/08 00:19:23;;;;;;;2.72;1.55;;;19.30;99.90;;;;;;4210421;28;20226;-77
2021/12/08 00:21:27;;;;;;;4.05;1.63;;;19.20;99.90;;;;;;4209902;28;20264;-77
2021/12/08 00:23:30;;;;;;;3.88;1.73;;;19.20;99.90;;;;;;4203355;28;20263;-78
2021/12/08 00:25:33;;;;;;;2.17;1.52;;;19.20;99.90;;;;;;4212784;28;20214;-77
2021/12/08 00:27:36;;;;;;;3.58;1.83;;;19.20;99.90;;;;;;4212361;28;20942;-77
2021/12/08 00:29:38;;;;;;;3.35;1.67;;;19.20;99.90;;;;;;4211054;28;20215;-78
2021/12/08 00:31:45;;;;;;;3.20;1.50;;;19.20;99.90;;;;;;4211426;28;20226;-77
2021/12/08 00:33:48;;;;;;;2.35;1.48;;;19.20;99.90;;;;;;4211218;28;20284;-77
2021/12/08 00:35:52;;;;;;;2.05;1.30;;;19.20;99.90;;;;;;4212710;28;20679;-77
2021/12/08 00:37:55;;;;;;;3.75;2.08;;;19.20;99.90;;;;;;4212151;28;20260;-78
2021/12/08 00:39:57;;;;;;;2.67;1.70;;;19.20;99.90;;;;;;4211997;28;20231;-77
2021/12/08 00:42:00;;;;;;;3.25;1.73;;;19.20;99.90;;;;;;4211832;28;20218;-77
2021/12/08 00:44:02;;;;;;;1.70;1.50;;;19.20;99.90;;;;;;4212116;28;20214;-77
2021/12/08 00:46:04;;;;;;;3.65;1.63;;;19.20;99.90;;;;;;4211441;28;20679;-77
2021/12/08 00:48:09;;;;;;;3.13;1.70;;;19.20;99.90;;;;;;4211858;28;20223;-78
2021/12/08 00:50:14;;;;;;;2.63;1.65;;;19.20;99.90;;;;;;4207010;28;20223;-78
2021/12/08 00:52:16;;;;;;;2.72;1.92;;;19.10;99.90;;;;;;4210296;28;20222;-77
2021/12/08 00:54:18;;;;;;;3.03;1.83;;;19.20;99.90;;;;;;4205775;28;20238;-77
2021/12/08 00:56:21;;;;;;;2.25;1.40;;;19.10;99.90;;;;;;4212179;28;20252;-77
2021/12/08 00:58:24;;;;;;;2.75;1.52;;;19.10;99.90;;;;;;4211924;28;20974;-77
2021/12/08 01:00:30;;;;;;;1.90;1.50;;;19.10;99.90;;;;;;4212840;28;20207;-77
2021/12/08 01:02:33;;;;;;;4.55;2.05;;;19.10;99.90;;;;;;4211720;28;20236;-77
2021/12/08 01:04:36;;;;;;;2.75;1.63;;;19.10;99.90;;;;;;4211277;28;20210;-78
2021/12/08 01:06:39;;;;;;;2.45;1.73;;;19.10;99.90;;;;;;4208626;28;20214;-77
2021/12/08 01:08:42;;;;;;;2.40;1.40;;;19.10;99.90;;;;;;4206663;28;20222;-77
2021/12/08 01:10:46;;;;;;;3.05;1.63;;;19.10;99.90;;;;;;4211624;28;20267;-76
2021/12/08 01:12:49;;;;;;;2.58;1.50;;;19.10;99.90;;;;;;4211037;28;20226;-78
2021/12/08 01:14:51;;;;;;;2.22;1.40;;;19.10;99.90;;;;;;4211135;28;20299;-77
2021/12/08 01:16:53;;;;;;;2.20;1.60;;;19.10;99.90;;;;;;4204542;28;20254;-77
2021/12/08 01:18:56;;;;;;;3.33;1.75;;;19.10;99.90;;;;;;4210313;28;20283;-77
2021/12/08 01:21:03;;;;;;;3.55;1.50;;;19.10;99.90;;;;;;4209167;28;20252;-76
2021/12/08 01:23:05;;;;;;;2.30;1.67;;;19.10;99.90;;;;;;4210938;28;20214;-77
2021/12/08 01:25:08;;;;;;;4.00;1.38;;;19.10;99.90;;;;;;4207721;28;20363;-77
2021/12/08 01:27:11;;;;;;;2.45;1.40;;;19.10;99.90;;;;;;4211634;28;20267;-77
2021/12/08 01:29:13;;;;;;;3.55;1.88;;;19.00;99.90;;;;;;4211325;28;20218;-77
2021/12/08 01:31:16;;;;;;;3.17;1.52;;;19.00;99.90;;;;;;4211473;28;20226;-77
2021/12/08 01:33:19;;;;;;;1.80;1.27;;;19.00;99.90;;;;;;4211740;28;20961;-77
2021/12/08 01:35:21;;;;;;;2.85;1.52;;;19.00;99.90;;;;;;4211227;28;20280;-77
2021/12/08 01:37:25;;;;;;;2.88;1.73;;;19.00;99.90;;;;;;4211352;28;20279;-77
2021/12/08 01:39:27;;;;;;;2.25;1.50;;;19.00;99.90;;;;;;4211081;28;20218;-77
2021/12/08 01:41:30;;;;;;;1.90;1.40;;;19.00;99.90;;;;;;4203575;28;20230;-77
2021/12/08 01:43:41;;;;;;;3.95;1.60;;;19.00;99.90;;;;;;4211808;28;20221;-77
2021/12/08 01:45:59;;;;;;;3.05;1.50;;;19.00;99.90;;;;;;4210069;28;20222;-77
2021/12/08 01:48:03;;;;;;;3.30;1.50;;;19.00;99.90;;;;;;4211626;28;20263;-76
2021/12/08 01:50:07;;;;;;;2.47;1.15;;;19.00;99.90;;;;;;4211011;28;20275;-77
2021/12/08 01:52:09;;;;;;;2.33;1.48;;;19.00;99.90;;;;;;4210775;28;20226;-77
2021/12/08 01:54:13;;;;;;;2.60;1.45;;;19.00;99.90;;;;;;4211420;28;20230;-77
2021/12/08 01:56:15;;;;;;;3.05;1.42;;;19.00;99.90;;;;;;4210551;28;20244;-77
2021/12/08 01:58:18;;;;;;;2.33;1.27;;;19.00;99.90;;;;;;4203125;28;20219;-77
2021/12/08 02:00:26;;;;;;;2.30;1.40;;;19.00;99.90;;;;;;4211400;28;20727;-77
2021/12/08 02:02:29;;;;;;;2.78;1.95;;;19.00;99.90;;;;;;4205757;28;20222;-78
2021/12/08 02:04:31;;;;;;;2.30;1.40;;;18.90;99.90;;;;;;4210044;28;20210;-77
2021/12/08 02:06:36;;;;;;;1.58;1.30;;;18.90;99.90;;;;;;4210273;28;20268;-77
2021/12/08 02:08:40;;;;;;;3.00;1.60;;;18.90;99.90;;;;;;4210739;28;20636;-77
2021/12/08 02:10:44;;;;;;;2.50;1.30;;;18.90;99.90;;;;;;4211161;28;20468;-77
2021/12/08 02:12:47;;;;;;;4.07;1.80;;;19.00;99.90;;;;;;4210714;28;20559;-77
2021/12/08 02:14:50;;;;;;;3.20;1.60;;;18.90;99.90;;;;;;4206464;28;20246;-77
2021/12/08 02:16:55;;;;;;;1.88;1.20;;;18.90;99.90;;;;;;4209221;28;20256;-77
2021/12/08 02:18:59;;;;;;;1.95;1.20;;;18.90;99.90;;;;;;4205004;28;20222;-77
2021/12/08 02:21:04;;;;;;;2.53;1.38;;;18.90;99.90;;;;;;4201130;28;21502;-77
2021/12/08 02:23:07;;;;;;;2.17;1.30;;;18.90;99.90;;;;;;4207273;28;20675;-77
2021/12/08 02:25:12;;;;;;;2.85;1.77;;;18.90;99.90;;;;;;4196741;28;20222;-77
2021/12/08 02:27:14;;;;;;;3.47;1.35;;;18.90;99.90;;;;;;4210781;28;20222;-77
2021/12/08 02:29:22;;;;;;;2.42;1.27;;;18.90;99.90;;;;;;4210674;28;20230;-77
2021/12/08 02:31:33;;;;;;;3.03;1.52;;;18.90;99.90;;;;;;4210931;28;20213;-77
2021/12/08 02:47:54;;;;;;;2.97;1.60;;;18.80;99.90;;;;;;4143598;28;20213;-77
2021/12/08 02:49:57;;;;;;;2.10;1.30;;;18.80;99.90;;;;;;4141442;28;20221;-77
2021/12/08 02:52:00;;;;;;;3.35;1.60;;;18.80;99.90;;;;;;4143107;28;20268;-77
2021/12/08 02:54:05;;;;;;;2.92;1.50;;;18.80;99.90;;;;;;4197570;28;20222;-77
2021/12/08 02:56:07;;;;;;;3.10;1.52;;;18.80;99.90;;;;;;4209800;28;20223;-77
2021/12/08 02:58:10;;;;;;;3.13;1.35;;;18.80;99.90;;;;;;4209192;28;20241;-77
2021/12/08 03:00:17;;;;;;;3.38;1.42;;;18.80;99.90;;;;;;4210816;28;20219;-77
2021/12/08 03:02:20;;;;;;;2.60;1.45;;;18.80;99.90;;;;;;4209652;28;20219;-77
2021/12/08 03:04:22;;;;;;;2.42;1.33;;;18.70;99.90;;;;;;4210368;28;20214;-77
2021/12/08 03:06:25;;;;;;;2.30;1.40;;;18.70;99.90;;;;;;4204249;28;20694;-77
2021/12/08 03:08:28;;;;;;;4.18;1.50;;;18.80;99.90;;;;;;4210923;28;20214;-77
2021/12/08 03:10:36;;;;;;;4.35;1.30;;;18.80;99.90;;;;;;4210057;28;20972;-77
2021/12/08 03:12:38;;;;;;;2.55;1.48;;;18.80;99.90;;;;;;4210785;28;20218;-77
2021/12/08 03:14:41;;;;;;;3.13;1.10;;;18.70;99.90;;;;;;4210126;28;20702;-77
2021/12/08 03:16:46;;;;;;;2.95;1.48;;;18.70;99.90;;;;;;4210145;28;20299;-77
2021/12/08 03:18:49;;;;;;;2.58;1.33;;;18.70;99.90;;;;;;4209427;28;20252;-77
2021/12/08 03:20:51;;;;;;;3.05;1.70;;;18.70;99.90;;;;;;4203578;28;20295;-77
2021/12/08 03:23:00;;;;;;;2.55;1.65;;;18.70;99.90;;;;;;4210845;28;20276;-77
2021/12/08 03:25:05;;;;;;;1.73;1.17;;;18.70;99.90;;;;;;4213578;28;20898;-77
2021/12/08 03:27:12;;;;;;;1.83;1.20;;;18.70;99.90;;;;;;4213443;28;20218;-77
2021/12/08 03:29:22;;;;;;;1.98;1.20;;;18.70;99.90;;;;;;4213785;28;20214;-77
2021/12/08 03:31:30;;;;;;;2.97;1.50;;;18.70;99.90;;;;;;4211833;28;20222;-77
2021/12/08 03:33:33;;;;;;;1.88;1.20;;;18.70;99.90;;;;;;4213365;28;20217;-77
2021/12/08 03:35:35;;;;;;;2.75;1.35;;;18.60;99.90;;;;;;4208712;28;20238;-77
2021/12/08 03:37:41;;;;;;;1.98;1.20;;;18.70;99.90;;;;;;4212619;28;21009;-77
2021/12/08 03:39:44;;;;;;;2.20;1.30;;;18.70;99.90;;;;;;4212884;28;20603;-77
2021/12/08 03:41:46;;;;;;;2.95;1.48;;;18.70;99.90;;;;;;4213167;28;20214;-77
2021/12/08 03:43:51;;;;;;;3.05;1.42;;;18.60;99.90;;;;;;4212885;28;20275;-77
2021/12/08 03:45:55;;;;;;;1.80;1.20;;;18.60;99.90;;;;;;4212896;28;20591;-77
2021/12/08 03:48:02;;;;;;;3.05;1.25;;;18.60;99.90;;;;;;4204307;28;20331;-77
2021/12/08 03:50:07;;;;;;;4.38;1.70;;;18.60;99.90;;;;;;4209682;28;20848;-77
2021/12/08 03:52:10;;;;;;;2.08;1.27;;;18.60;99.90;;;;;;4211008;28;20206;-77
2021/12/08 03:54:14;;;;;;;2.65;1.30;;;18.60;99.90;;;;;;4212707;28;20222;-77
2021/12/08 03:56:17;;;;;;;2.65;1.40;;;18.60;99.90;;;;;;4212920;28;20280;-77
2021/12/08 03:58:19;;;;;;;3.28;1.60;;;18.60;99.90;;;;;;4211023;28;20222;-77
2021/12/08 04:00:30;;;;;;;3.35;1.45;;;18.50;99.90;;;;;;4212816;28;20225;-77
2021/12/08 04:02:32;;;;;;;2.25;1.35;;;18.60;99.90;;;;;;4212755;28;20218;-77
2021/12/08 04:04:43;;;;;;;3.17;1.30;;;18.60;99.90;;;;;;4213026;28;20214;-77
2021/12/08 04:06:48;;;;;;;3.65;1.40;;;18.60;99.90;;;;;;4209327;28;20279;-77
2021/12/08 04:08:56;;;;;;;2.65;1.13;;;18.60;99.90;;;;;;4211208;28;20259;-77
2021/12/08 04:11:03;;;;;;;2.60;1.02;;;18.60;99.90;;;;;;4212633;28;20221;-77
2021/12/08 04:13:05;;;;;;;2.95;1.33;;;18.50;99.90;;;;;;4213174;28;20619;-77
2021/12/08 04:15:08;;;;;;;2.47;1.30;;;18.60;99.90;;;;;;4206174;28;20333;-77
2021/12/08 04:17:17;;;;;;;3.13;1.40;;;18.60;99.90;;;;;;4211279;28;20312;-77
2021/12/08 04:19:20;;;;;;;2.53;1.40;;;18.50;99.90;;;;;;4212576;28;20206;-77
2021/12/08 04:21:22;;;;;;;2.55;1.25;;;18.50;99.90;;;;;;4210873;28;20265;-77
2021/12/08 04:23:28;;;;;;;1.83;1.13;;;18.50;99.90;;;;;;4212629;28;20231;-78
2021/12/08 04:25:35;;;;;;;2.53;1.30;;;18.50;99.90;;;;;;4212540;28;20214;-77
2021/12/08 04:27:40;;;;;;;3.70;1.58;;;18.50;99.90;;;;;;4207571;28;20845;-77
2021/12/08 04:29:44;;;;;;;2.97;1.17;;;18.50;99.90;;;;;;4212953;28;20252;-77
2021/12/08 04:31:49;;;;;;;3.30;1.55;;;18.50;99.90;;;;;;4210677;28;20226;-77
2021/12/08 04:33:58;;;;;;;2.45;1.48;;;18.50;99.90;;;;;;4212401;28;20244;-77
2021/12/08 04:36:02;;;;;;;3.80;1.40;;;18.50;99.90;;;;;;4203846;28;20771;-77
2021/12/08 04:38:09;;;;;;;2.03;1.30;;;18.50;99.90;;;;;;4211850;28;20222;-77
2021/12/08 04:40:26;;;;;;;3.33;1.52;;;18.50;99.90;;;;;;4212150;28;20233;-77
2021/12/08 04:42:43;;;;;;;2.50;1.45;;;18.50;99.90;;;;;;4210724;28;20222;-77
2021/12/08 04:44:51;;;;;;;3.15;1.50;;;18.50;99.90;;;;;;4210800;28;20252;-77
2021/12/08 04:47:16;;;;;;;3.00;1.55;;;18.50;99.90;;;;;;4212666;28;20539;-78
2021/12/08 04:49:37;;;;;;;2.15;1.30;;;18.40;99.90;;;;;;4210103;28;20230;-77
2021/12/08 04:51:52;;;;;;;3.63;1.73;;;18.40;99.90;;;;;;4211456;28;21022;-77
2021/12/08 05:00:13;;;;;;;3.75;1.40;;;18.40;99.90;;;;;;4212146;28;20267;-77
2021/12/08 05:01:21;;;;;;;3.20;1.20;;;18.40;99.90;;;;;;4210482;28;20211;-77
2021/12/08 05:03:44;;;;;;;3.50;1.33;;;18.40;99.90;;;;;;4212139;28;20215;-77
2021/12/08 05:06:05;;;;;;;2.50;1.30;;;18.40;99.90;;;;;;4210030;28;20343;-78
2021/12/08 05:08:15;;;;;;;4.78;1.50;;;18.40;99.90;;;;;;4211647;28;20222;-77
2021/12/08 05:10:22;;;;;;;4.05;1.48;;;18.30;99.90;;;;;;4211822;28;20311;-77
2021/12/08 05:12:28;;;;;;;2.67;1.40;;;18.40;99.90;;;;;;4211600;28;20739;-77
2021/12/08 05:14:34;;;;;;;3.17;1.45;;;18.30;99.90;;;;;;4210760;28;20218;-77
2021/12/08 05:16:41;;;;;;;3.13;1.42;;;18.30;99.90;;;;;;4211617;28;20226;-77
2021/12/08 05:18:48;;;;;;;2.55;1.42;;;18.30;99.90;;;;;;4207342;28;20251;-77
2021/12/08 05:21:01;;;;;;;3.40;1.30;;;18.40;99.90;;;;;;4209191;28;20563;-77
2021/12/08 05:23:08;;;;;;;2.80;1.40;;;18.30;99.90;;;;;;4201336;28;20226;-78
2021/12/08 05:25:18;;;;;;;2.58;1.30;;;18.30;99.90;;;;;;4211030;28;20267;-77
2021/12/08 05:27:26;;;;;;;2.35;1.02;;;18.30;99.90;;;;;;4211263;28;20218;-77
2021/12/08 05:29:31;;;;;;;2.22;1.27;;;18.30;99.90;;;;;;4211601;28;20214;-77
2021/12/08 05:31:34;;;;;;;2.65;1.17;;;18.30;99.90;;;;;;4211771;28;20264;-78
2021/12/08 05:33:37;;;;;;;3.55;1.75;;;18.30;99.90;;;;;;4211193;28;20635;-77
2021/12/08 05:35:42;;;;;;;3.00;1.40;;;18.30;99.90;;;;;;4211169;28;20272;-78
2021/12/08 05:37:46;;;;;;;3.08;1.40;;;18.30;99.90;;;;;;4207747;28;20218;-77
2021/12/08 05:39:48;;;;;;;3.00;1.30;;;18.30;99.90;;;;;;4202063;28;20311;-77
2021/12/08 05:41:55;;;;;;;3.00;1.35;;;18.30;99.90;;;;;;4211362;28;20739;-78
2021/12/08 05:43:57;;;;;;;2.25;1.30;;;18.30;99.90;;;;;;4211616;28;20222;-77
2021/12/08 05:46:00;;;;;;;2.85;1.10;;;18.30;99.90;;;;;;4202739;28;20628;-78
2021/12/08 05:48:03;;;;;;;3.33;1.17;;;18.30;99.90;;;;;;4211644;28;20271;-77
2021/12/08 05:50:07;;;;;;;2.42;1.33;;;18.20;99.90;;;;;;4210850;28;20283;-77
2021/12/08 05:52:09;;;;;;;4.82;1.65;;;18.20;99.90;;;;;;4210875;28;20272;-77
2021/12/08 05:54:17;;;;;;;3.20;1.30;;;18.10;99.90;;;;;;4208386;28;20218;-77
2021/12/08 05:56:20;;;;;;;2.40;1.20;;;18.10;99.90;;;;;;4202372;28;20330;-77
2021/12/08 05:58:24;;;;;;;2.83;1.42;;;17.90;99.90;;;;;;4211484;28;20555;-77
2021/12/08 06:00:33;;;;;;;1.90;1.30;;;18.00;99.90;;;;;;4211060;28;20268;-78
2021/12/08 06:02:37;;;;;;;3.92;1.67;;;18.10;99.90;;;;;;4211282;28;20678;-77
2021/12/08 06:04:40;;;;;;;3.33;1.65;;;18.20;99.90;;;;;;4211233;28;20218;-77
2021/12/08 06:06:45;;;;;;;2.88;1.23;;;18.20;99.90;;;;;;4211182;28;20218;-77
2021/12/08 06:08:48;;;;;;;2.50;1.23;;;18.30;99.90;;;;;;4211243;28;20259;-77
2021/12/08 06:10:52;;;;;;;2.30;1.10;;;18.30;99.90;;;;;;4210286;28;20222;-77
2021/12/08 06:12:54;;;;;;;2.38;1.30;;;18.30;99.90;;;;;;4205900;28;20230;-77
2021/12/08 06:14:57;;;;;;;2.03;1.05;;;18.30;99.90;;;;;;4210586;28;20222;-77
2021/12/08 06:17:04;;;;;;;3.95;1.45;;;18.30;99.90;;;;;;4203134;28;20234;-77
2021/12/08 06:19:08;;;;;;;3.47;1.27;;;18.30;99.90;;;;;;4209829;28;20226;-77
2021/12/08 06:21:15;;;;;;;2.20;1.27;;;18.30;99.90;;;;;;4210136;28;20210;-77
2021/12/08 06:23:18;;;;;;;4.35;1.40;;;18.40;99.90;;;;;;4210803;28;20247;-77
2021/12/08 06:25:21;;;;;;;3.42;1.30;;;18.40;99.90;;;;;;4207113;28;20218;-77
2021/12/08 06:27:26;;;;;;;2.42;1.55;;;18.40;99.90;;;;;;4210825;28;20215;-77
2021/12/08 06:29:28;;;;;;;2.33;1.00;;;18.40;99.90;;;;;;4210245;28;20226;-77
2021/12/08 06:31:33;;;;;;;2.88;1.20;;;18.50;99.90;;;;;;4210384;28;20260;-77
2021/12/08 06:33:35;;;;;;;4.95;1.58;;;18.40;99.90;;;;;;4202717;28;20300;-77
2021/12/08 06:35:40;;;;;;;1.98;1.15;;;18.50;99.90;;;;;;4207874;28;20740;-77
2021/12/08 06:37:44;;;;;;;2.58;1.05;;;18.50;99.90;;;;;;4210443;28;20280;-77
2021/12/08 06:39:50;;;;;;;3.78;1.50;;;18.50;99.90;;;;;;4209254;28;20276;-77
2021/12/08 06:41:57;;;;;;;2.72;1.33;;;18.50;99.90;;;;;;4211241;28;20275;-77
2021/12/08 06:44:06;;;;;;;1.80;1.00;;;18.50;99.90;;;;;;4202781;28;20214;-77
2021/12/08 06:46:09;;;;;;;1.13;0.85;;;18.50;99.90;;;;;;4210982;28;20267;-77
2021/12/08 06:48:17;;;;;;;2.88;1.45;;;18.50;99.90;;;;;;4209662;28;20264;-77
2021/12/08 06:50:26;;;;;;;2.58;1.10;;;18.60;99.90;;;;;;4208022;28;20222;-77
2021/12/08 06:52:32;;;;;;;3.38;1.38;;;18.50;99.90;;;;;;4208643;28;20683;-77
2021/12/08 06:54:37;;;;;;;3.03;1.27;;;18.60;99.90;;;;;;4213569;28;20218;-77
2021/12/08 06:56:45;;;;;;;3.30;1.30;;;18.60;99.90;;;;;;4213820;28;20275;-77
2021/12/08 06:58:50;;;;;;;4.63;1.33;;;18.60;99.90;;;;;;4213785;28;20674;-77
2021/12/08 07:01:12;;;;;;;2.00;1.15;;;18.60;99.90;;;;;;4213594;28;20268;-77
2021/12/08 07:03:30;;;;;;;3.58;1.30;;;18.60;99.90;;;;;;4213915;28;20218;-77
2021/12/08 07:06:03;;;;;;;2.13;1.10;;;18.60;99.90;;;;;;4213644;28;20225;-77
2021/12/08 07:08:09;;;;;;;2.50;1.13;;;18.60;99.90;;;;;;4213504;28;20222;-77
2021/12/08 07:10:19;;;;;;;2.53;1.25;;;18.60;99.90;;;;;;4213630;28;20248;-77
2021/12/08 07:12:25;;;;;;;2.58;1.33;;;18.60;99.90;;;;;;4213805;28;20222;-77
2021/12/08 07:14:29;;;;;;;4.45;1.60;;;18.70;99.90;;;;;;4213940;28;20280;-77
2021/12/08 07:16:36;;;;;;;2.50;1.30;;;18.70;99.90;;;;;;4213825;28;20291;-77
2021/12/08 07:18:52;;;;;;;2.15;1.38;;;18.70;99.90;;;;;;4213147;28;20728;-77
2021/12/08 07:21:03;;;;;;;2.63;1.10;;;18.70;99.90;;;;;;4211603;28;20279;-78
2021/12/08 07:23:06;;;;;;;3.63;1.15;;;18.60;99.90;;;;;;4213616;28;20210;-77
2021/12/08 07:25:12;;;;;;;3.97;1.13;;;18.70;99.90;;;;;;4213668;28;20618;-78
2021/12/08 07:27:18;;;;;;;2.63;1.45;;;18.70;99.90;;;;;;4208332;28;20263;-78
2021/12/08 07:29:31;;;;;;;2.05;1.13;;;18.70;99.90;;;;;;4208766;28;20210;-78
2021/12/08 07:31:38;;;;;;;3.05;1.40;;;18.70;99.90;;;;;;4213473;28;20206;-77
2021/12/08 07:33:43;;;;;;;2.97;1.35;;;18.70;99.90;;;;;;4213375;28;20240;-78
2021/12/08 07:35:48;;;;;;;2.00;1.00;;;18.70;99.90;;;;;;4212955;28;20244;-78
2021/12/08 07:37:51;;;;;;;2.35;1.17;;;18.70;99.90;;;;;;4212107;28;20242;-77
2021/12/08 07:39:58;;;;;;;2.60;1.13;;;18.70;99.90;;;;;;4213239;28;20222;-77
2021/12/08 07:42:05;;;;;;;2.35;1.20;;;18.70;99.90;;;;;;4212649;28;20275;-77
2021/12/08 07:44:11;;;;;;;2.47;1.10;;;18.70;99.90;;;;;;4212454;28;20823;-77
2021/12/08 07:46:16;;;;;;;3.38;1.20;;;18.70;99.90;;;;;;4205158;28;20605;-77
2021/12/08 07:48:24;;;;;;;2.80;1.20;;;18.70;99.90;;;;;;4211586;28;20218;-77
2021/12/08 07:50:30;;;;;;;2.42;1.27;;;18.70;99.90;;;;;;4211693;28;20260;-78
2021/12/08 07:52:34;;;;;;;4.40;1.30;;;18.70;99.90;;;;;;4208456;28;20215;-77
2021/12/08 07:54:38;;;;;;;3.78;1.10;;;18.80;99.90;;;;;;4211149;28;20275;-77
2021/12/08 07:56:43;;;;;;;5.85;1.35;;;18.90;99.90;;;;;;4208166;28;20279;-77
2021/12/08 07:58:50;;;;;;;2.65;1.27;;;18.90;99.90;;;;;;4202394;28;20955;-76
2021/12/08 08:00:55;;;;;;;5.28;1.20;;;19.00;99.90;;;;;;4205098;28;20215;-75
2021/12/08 08:02:59;;;;;;;4.78;1.35;;;19.20;99.90;;;;;;4204772;28;20263;-75
2021/12/08 08:05:05;;;;;;;3.78;1.40;;;19.30;99.90;;;;;;4198590;28;20969;-76
2021/12/08 08:07:08;;;;;;;15.85;1.90;;;19.40;99.90;;;;;;4207346;28;20703;-77
2021/12/08 08:09:17;;;;;;;7.80;1.50;;;19.50;99.90;;;;;;4191081;28;20276;-75
2021/12/08 08:11:22;;;;;;;2.92;1.05;;;19.50;99.90;;;;;;4208731;28;20222;-75
2021/12/08 08:13:26;;;;;;;3.03;1.02;;;19.60;99.90;;;;;;4205811;28;20222;-75
2021/12/08 08:15:33;;;;;;;5.47;1.33;;;19.70;99.90;;;;;;4207877;28;20269;-77
2021/12/08 08:17:42;;;;;;;5.28;1.52;;;19.70;99.90;;;;;;4210842;28;20299;-75
2021/12/08 08:19:48;;;;;;;4.50;1.00;;;19.80;99.90;;;;;;4209743;28;20218;-77
2021/12/08 08:21:54;;;;;;;5.07;1.67;;;19.70;99.90;;;;;;4204477;28;20229;-76
2021/12/08 08:23:59;;;;;;;3.92;1.48;;;19.80;99.90;;;;;;4208601;28;20267;-77
2021/12/08 08:26:03;;;;;;;2.90;1.48;;;20.00;99.90;;;;;;4200447;28;20267;-77
2021/12/08 08:28:07;;;;;;;4.38;1.27;;;20.10;99.90;;;;;;4208162;28;20206;-76
2021/12/08 08:30:13;;;;;;;4.10;1.35;;;20.10;99.90;;;;;;4202086;28;20696;-76
2021/12/08 08:32:22;;;;;;;5.30;1.77;;;20.00;99.90;;;;;;4209726;28;20218;-76
2021/12/08 08:34:25;;;;;;;3.60;1.60;;;20.10;99.90;;;;;;4205928;28;20272;-76
2021/12/08 08:36:31;;;;;;;4.10;1.25;;;20.10;99.90;;;;;;4204051;28;20222;-75
2021/12/08 08:38:37;;;;;;;2.97;1.30;;;20.10;99.90;;;;;;4204859;28;20702;-75
2021/12/08 08:40:46;;;;;;;2.95;1.42;;;20.20;99.90;;;;;;4204903;28;20283;-77
2021/12/08 08:42:51;;;;;;;4.57;1.40;;;20.30;99.90;;;;;;4205215;28;20686;-76
2021/12/08 08:44:58;;;;;;;3.65;1.50;;;20.40;99.90;;;;;;4206277;28;20562;-76
2021/12/08 08:47:05;;;;;;;4.30;1.25;;;20.40;99.90;;;;;;4197886;28;20215;-76
2021/12/08 08:49:13;;;;;;;5.35;1.70;;;20.40;99.90;;;;;;4204043;28;20271;-76
2021/12/08 08:51:20;;;;;;;5.50;1.50;;;20.40;99.90;;;;;;4206807;28;20323;-76
2021/12/08 08:53:26;;;;;;;2.88;1.10;;;20.40;99.90;;;;;;4204488;28;20226;-76
2021/12/08 08:55:33;;;;;;;3.08;1.40;;;20.40;99.90;;;;;;4207755;28;20269;-75
2021/12/08 08:57:38;;;;;;;4.72;1.48;;;20.40;99.90;;;;;;4203020;28;20279;-75
2021/12/08 08:59:45;;;;;;;3.05;1.27;;;20.50;99.90;;;;;;4207146;28;20633;-75
2021/12/08 09:01:51;;;;;;;5.00;1.60;;;20.50;99.90;;;;;;4204371;28;20211;-77
2021/12/08 09:03:57;;;;;;;3.80;1.38;;;20.40;99.90;;;;;;4207843;28;20218;-76
2021/12/08 09:06:05;;;;;;;3.17;1.58;;;20.40;99.90;;;;;;4209939;28;20291;-75
2021/12/08 09:08:11;;;;;;;3.38;1.63;;;20.40;99.90;;;;;;4202884;28;20218;-75
2021/12/08 09:10:18;;;;;;;4.85;1.38;;;20.40;99.90;;;;;;4205532;28;20223;-75
2021/12/08 09:12:26;;;;;;;4.45;1.45;;;20.50;99.90;;;;;;4195841;28;20218;-74
2021/12/08 09:14:33;;;;;;;4.28;1.30;;;20.50;99.90;;;;;;4199309;28;20213;-74
2021/12/08 09:16:40;;;;;;;7.80;1.75;;;20.40;99.90;;;;;;4208395;28;20264;-75
2021/12/08 09:18:51;;;;;;;5.97;1.35;;;20.60;99.90;;;;;;4200867;28;20283;-75
2021/12/08 09:21:00;;;;;;;7.15;1.50;;;20.60;99.90;;;;;;4202635;28;20222;-75
2021/12/08 09:23:06;;;;;;;5.63;1.58;;;20.80;99.90;;;;;;4207367;28;20215;-75
2021/12/08 09:25:15;;;;;;;3.08;1.10;;;20.70;99.90;;;;;;4201061;28;20202;-75
2021/12/08 09:27:21;;;;;;;2.30;1.33;;;20.70;99.90;;;;;;4203676;28;20214;-75
2021/12/08 09:29:28;;;;;;;3.22;1.27;;;20.70;99.90;;;;;;4207147;28;20218;-75
2021/12/08 09:31:35;;;;;;;4.10;1.33;;;20.70;99.90;;;;;;4201354;28;20226;-75
2021/12/08 09:33:45;;;;;;;2.92;1.20;;;20.70;99.90;;;;;;4207834;28;20218;-76
2021/12/08 09:35:51;;;;;;;3.55;1.40;;;20.80;99.90;;;;;;4205149;28;20264;-76
2021/12/08 09:37:57;;;;;;;2.70;1.55;;;20.80;99.90;;;;;;4203033;28;20693;-76
2021/12/08 09:40:05;;;;;;;7.22;2.28;;;20.80;99.90;;;;;;4207968;28;20234;-76
2021/12/08 09:42:13;;;;;;;4.53;1.40;;;20.80;99.90;;;;;;4208871;28;20222;-77
2021/12/08 09:44:20;;;;;;;6.03;1.80;;;20.90;99.90;;;;;;4203525;28;20210;-77
2021/12/08 09:46:28;;;;;;;9.73;1.70;;;20.80;99.90;;;;;;4200350;28;20210;-76
2021/12/08 09:48:31;;;;;;;4.75;1.30;;;20.80;99.90;;;;;;4201945;28;20214;-77
2021/12/08 09:50:33;;;;;;;3.88;1.40;;;20.80;99.90;;;;;;4208657;28;21695;-76
2021/12/08 09:52:37;;;;;;;6.28;1.95;;;20.80;99.90;;;;;;4210301;28;20211;-75
2021/12/08 09:54:40;;;;;;;2.90;1.20;;;20.90;99.90;;;;;;4206245;28;20260;-75
2021/12/08 09:56:49;;;;;;;2.83;1.50;;;21.00;99.90;;;;;;4208931;28;20936;-76
2021/12/08 09:58:53;;;;;;;4.30;1.38;;;21.10;99.90;;;;;;4203527;28;20279;-76
2021/12/08 10:00:59;;;;;;;8.50;1.90;;;21.10;99.90;;;;;;4200588;28;20671;-76
2021/12/08 10:03:05;;;;;;;13.13;1.50;;;20.90;99.90;;;;;;4203668;28;20278;-74
2021/12/08 10:05:11;;;;;;;3.97;1.48;;;21.00;99.90;;;;;;4209586;28;20207;-76
2021/12/08 10:07:14;;;;;;;6.55;1.50;;;21.10;99.90;;;;;;4196728;28;20268;-75
2021/12/08 10:09:18;;;;;;;10.40;1.83;;;21.10;99.90;;;;;;4209308;28;20206;-76
2021/12/08 10:11:20;;;;;;;5.72;1.60;;;21.10;99.90;;;;;;4197931;28;20227;-74
2021/12/08 10:13:23;;;;;;;3.78;1.50;;;21.20;99.90;;;;;;4210735;28;20206;-73
2021/12/08 10:15:27;;;;;;;9.57;1.77;;;21.30;99.90;;;;;;4207293;28;20211;-74
2021/12/08 10:17:30;;;;;;;2.65;1.30;;;21.40;99.90;;;;;;4201498;28;20218;-74
2021/12/08 10:19:33;;;;;;;4.82;1.38;;;21.50;99.90;;;;;;4201606;28;20280;-75
2021/12/08 10:21:38;;;;;;;7.20;1.85;;;21.40;99.90;;;;;;4208952;28;20214;-76
2021/12/08 10:23:42;;;;;;;3.03;1.40;;;21.40;99.90;;;;;;4206147;28;20267;-75
2021/12/08 10:25:49;;;;;;;6.03;1.52;;;21.40;99.90;;;;;;4209608;28;20206;-75
2021/12/08 10:28:10;;;;;;;2.60;1.50;;;21.40;99.90;;;;;;4205716;28;20218;-76
2021/12/08 10:30:20;;;;;;;6.93;1.63;;;21.50;99.90;;;;;;4207593;28;20228;-74
2021/12/08 10:32:22;;;;;;;5.30;1.50;;;21.50;99.90;;;;;;4200232;28;20210;-75
2021/12/08 10:34:34;;;;;;;4.05;1.70;;;21.50;99.90;;;;;;4210552;28;20723;-75
2021/12/08 10:36:46;;;;;;;2.08;1.42;;;21.40;99.90;;;;;;4209978;28;20214;-75
2021/12/08 10:38:48;;;;;;;3.08;1.65;;;21.60;99.90;;;;;;4209987;28;20694;-74
2021/12/08 10:40:58;;;;;;;1.45;1.00;;;21.60;99.90;;;;;;4211044;28;20234;-75
2021/12/08 10:43:13;;;;;;;5.97;1.55;;;21.50;99.90;;;;;;4208808;28;20213;-75
2021/12/08 10:45:22;;;;;;;5.28;1.50;;;21.60;99.90;;;;;;4205976;28;20219;-75
2021/12/08 10:47:28;;;;;;;2.33;1.40;;;21.60;99.90;;;;;;4211456;28;20951;-75
2021/12/08 10:54:30;;;;;;;2.45;1.33;;;21.70;99.90;;;;;;4213224;28;20210;-75
2021/12/08 10:56:40;;;;;;;2.95;1.27;;;21.70;99.90;;;;;;4210895;28;20964;-75
2021/12/08 10:58:49;;;;;;;4.00;1.55;;;21.70;99.90;;;;;;4210924;28;20569;-75
2021/12/08 11:00:53;;;;;;;2.95;1.23;;;21.60;99.90;;;;;;4199423;28;20267;-75
2021/12/08 11:02:57;;;;;;;2.80;1.48;;;21.70;99.90;;;;;;4206655;28;20248;-75
2021/12/08 11:04:59;;;;;;;5.07;1.42;;;21.70;99.90;;;;;;4208311;28;20215;-75
2021/12/08 11:07:09;;;;;;;2.55;1.33;;;21.80;99.90;;;;;;4212680;28;20287;-75
2021/12/08 11:09:16;;;;;;;2.45;1.10;;;21.80;99.90;;;;;;4206141;28;20214;-76
2021/12/08 11:11:22;;;;;;;3.28;1.30;;;21.80;99.90;;;;;;4208682;28;20210;-75
2021/12/08 11:13:27;;;;;;;3.78;1.48;;;21.80;99.90;;;;;;4197185;28;20260;-75
2021/12/08 11:15:32;;;;;;;6.43;1.13;;;21.80;99.90;;;;;;4203895;28;20763;-76
2021/12/08 11:17:35;;;;;;;2.35;1.60;;;21.80;99.90;;;;;;4206199;28;20214;-75